createdAt,value
2023-03-13T00:01:24.589Z,7.00
2023-03-13T00:03:52.163Z,6.90
2023-03-13T00:06:19.082Z,6.90
2023-03-13T00:08:45.994Z,6.80
2023-03-13T00:11:14.384Z,6.70
2023-03-13T00:13:42.246Z,6.70
2023-03-13T00:16:11.739Z,6.70
2023-03-13T00:18:38.828Z,6.60
2023-03-13T00:21:08.218Z,6.50
2023-03-13T00:23:37.378Z,6.50
2023-03-13T00:26:07.105Z,6.50
2023-03-13T00:28:35.573Z,6.40
2023-03-13T00:31:03.772Z,6.40
2023-03-13T00:33:35.122Z,6.50
2023-03-13T00:36:04.146Z,6.30
2023-03-13T00:38:31.296Z,6.30
2023-03-13T00:41:03.455Z,6.40
2023-03-13T00:43:30.777Z,6.40
2023-03-13T00:45:58.137Z,6.40
2023-03-13T00:48:26.092Z,6.40
2023-03-13T00:50:54.151Z,6.40
2023-03-13T00:53:21.105Z,6.40
2023-03-13T00:55:59.285Z,6.50
2023-03-13T00:58:27.916Z,6.40
2023-03-13T01:00:55.242Z,6.40
2023-03-13T01:03:25.584Z,6.40
2023-03-13T01:06:00.484Z,6.40
2023-03-13T01:08:28.228Z,6.50
2023-03-13T01:11:04.448Z,6.50
2023-03-13T01:13:34.789Z,6.60
2023-03-13T01:16:09.484Z,6.60
2023-03-13T01:18:37.471Z,6.50
2023-03-13T01:21:04.616Z,6.60
2023-03-13T01:23:31.585Z,6.90
2023-03-13T01:25:58.488Z,7.10
2023-03-13T01:28:26.589Z,7.30
2023-03-13T01:30:54.672Z,7.50
2023-03-13T01:33:21.590Z,7.70
2023-03-13T01:35:48.601Z,7.80
2023-03-13T01:38:15.446Z,8.00
2023-03-13T01:40:47.148Z,8.10
2023-03-13T01:43:27.441Z,8.20
2023-03-13T01:46:05.284Z,8.30
2023-03-13T01:48:55.983Z,8.40
2023-03-13T01:51:37.059Z,8.50
2023-03-13T01:54:13.377Z,8.60
2023-03-13T01:56:46.761Z,8.70
2023-03-13T01:59:17.607Z,8.80
2023-03-13T02:01:47.758Z,8.90
2023-03-13T02:04:16.260Z,9.00
2023-03-13T02:06:46.691Z,9.20
2023-03-13T02:09:18.802Z,9.30
2023-03-13T02:11:55.409Z,9.40
2023-03-13T02:14:26.962Z,9.60
2023-03-13T02:16:55.614Z,9.80
2023-03-13T02:19:31.468Z,9.80
2023-03-13T02:22:11.871Z,9.90
2023-03-13T02:24:49.276Z,10.00
2023-03-13T02:27:16.151Z,10.10
2023-03-13T02:29:44.372Z,10.00
2023-03-13T02:32:11.826Z,10.10
2023-03-13T02:34:41.107Z,10.10
2023-03-13T02:37:10.916Z,10.10
2023-03-13T02:39:42.315Z,10.10
2023-03-13T02:42:09.579Z,10.10
2023-03-13T02:44:42.107Z,10.10
2023-03-13T02:47:09.869Z,10.10
2023-03-13T02:49:37.133Z,10.10
2023-03-13T02:52:14.101Z,10.10
2023-03-13T02:54:45.886Z,10.10
2023-03-13T02:57:12.809Z,10.20
2023-03-13T02:59:40.194Z,10.10
2023-03-13T03:05:12.048Z,10.10
2023-03-13T03:07:40.872Z,10.10
2023-03-13T03:10:08.288Z,10.10
2023-03-13T03:12:41.771Z,10.00
2023-03-13T03:15:09.519Z,10.00
2023-03-13T03:17:39.509Z,10.00
2023-03-13T03:20:11.818Z,10.10
2023-03-13T03:22:41.732Z,10.20
2023-03-13T03:25:09.459Z,10.20
2023-03-13T03:27:37.144Z,10.20
2023-03-13T03:30:07.557Z,10.20
2023-03-13T03:32:36.248Z,10.20
2023-03-13T03:35:03.127Z,10.10
2023-03-13T03:37:30.011Z,10.00
2023-03-13T03:39:57.895Z,10.00
2023-03-13T03:42:25.152Z,10.00
2023-03-13T03:44:51.998Z,10.00
2023-03-13T03:47:19.118Z,10.00
2023-03-13T03:49:47.836Z,9.90
2023-03-13T03:52:15.929Z,10.00
2023-03-13T03:54:43.875Z,9.90
2023-03-13T03:57:10.926Z,10.00
2023-03-13T03:59:39.040Z,9.90
2023-03-13T04:02:09.898Z,10.00
2023-03-13T04:04:36.993Z,10.00
2023-03-13T04:07:08.346Z,10.00
2023-03-13T04:09:35.395Z,10.00
2023-03-13T04:12:04.543Z,9.90
2023-03-13T04:14:35.091Z,9.90
2023-03-13T04:17:05.158Z,10.00
2023-03-13T04:19:32.362Z,10.00
2023-03-13T04:21:59.836Z,10.00
2023-03-13T04:24:26.927Z,10.00
2023-03-13T04:26:53.896Z,10.00
2023-03-13T04:29:20.967Z,10.00
2023-03-13T04:32:01.112Z,10.00
2023-03-13T04:34:42.124Z,10.10
2023-03-13T04:37:28.829Z,10.10
2023-03-13T04:40:09.054Z,10.10
2023-03-13T04:42:50.717Z,10.10
2023-03-13T04:45:38.941Z,10.10
2023-03-13T04:48:18.974Z,10.20
2023-03-13T04:51:02.193Z,10.20
2023-03-13T04:53:40.365Z,10.20
2023-03-13T04:56:42.187Z,10.20
2023-03-13T04:59:31.371Z,10.20
2023-03-13T05:02:05.417Z,10.30
2023-03-13T05:04:35.074Z,10.30
2023-03-13T05:07:34.200Z,10.30
2023-03-13T05:10:26.349Z,10.20
2023-03-13T05:13:11.763Z,10.10
2023-03-13T05:15:51.332Z,10.10
2023-03-13T05:18:34.701Z,10.10
2023-03-13T05:21:10.144Z,10.00
2023-03-13T05:24:00.999Z,9.90
2023-03-13T05:26:50.958Z,9.80
2023-03-13T05:29:45.250Z,9.70
2023-03-13T05:32:21.891Z,9.70
2023-03-13T05:34:59.766Z,9.60
2023-03-13T05:37:46.255Z,9.50
2023-03-13T05:40:25.246Z,9.50
2023-03-13T05:43:10.847Z,9.40
2023-03-13T05:46:06.517Z,9.30
2023-03-13T05:48:50.288Z,9.30
2023-03-13T05:51:43.529Z,9.30
2023-03-13T05:54:29.373Z,9.30
2023-03-13T05:57:16.451Z,9.30
2023-03-13T05:59:56.522Z,9.40
2023-03-13T06:02:49.511Z,9.50
2023-03-13T06:05:22.171Z,9.50
2023-03-13T06:07:50.341Z,9.40
2023-03-13T06:10:17.636Z,9.40
2023-03-13T06:12:44.781Z,9.50
2023-03-13T06:15:13.455Z,9.50
2023-03-13T06:17:56.153Z,9.50
2023-03-13T06:20:23.106Z,9.50
2023-03-13T06:22:49.981Z,9.50
2023-03-13T06:25:16.771Z,9.60
2023-03-13T06:27:43.582Z,9.60
2023-03-13T06:30:11.401Z,9.70
2023-03-13T06:32:38.466Z,9.70
2023-03-13T06:35:06.066Z,9.70
2023-03-13T06:37:33.698Z,9.80
2023-03-13T06:40:00.529Z,9.90
2023-03-13T06:42:27.321Z,9.90
2023-03-13T06:44:54.049Z,10.00
2023-03-13T06:47:20.830Z,10.00
2023-03-13T06:49:47.649Z,10.10
2023-03-13T06:52:14.386Z,10.10
2023-03-13T06:54:41.179Z,10.20
2023-03-13T06:57:07.945Z,10.20
2023-03-13T06:59:34.658Z,10.30
2023-03-13T07:02:01.390Z,10.40
2023-03-13T07:04:28.076Z,10.40
2023-03-13T07:06:54.849Z,10.50
2023-03-13T07:09:21.824Z,10.50
2023-03-13T07:11:49.183Z,10.60
2023-03-13T07:14:17.647Z,10.70
2023-03-13T07:16:46.045Z,10.70
2023-03-13T07:19:13.381Z,10.70
2023-03-13T07:21:44.409Z,10.80
2023-03-13T07:24:11.504Z,10.70
2023-03-13T07:26:38.721Z,10.70
2023-03-13T07:29:05.715Z,10.80
2023-03-13T07:31:34.096Z,10.90
2023-03-13T07:34:01.014Z,10.90
2023-03-13T07:36:28.136Z,10.90
2023-03-13T07:38:55.175Z,11.00
2023-03-13T07:41:22.049Z,11.00
2023-03-13T07:43:48.931Z,11.10
2023-03-13T07:46:18.794Z,11.10
2023-03-13T07:48:46.545Z,11.10
2023-03-13T07:51:18.688Z,11.10
2023-03-13T07:53:49.195Z,11.10
2023-03-13T07:56:18.509Z,11.10
2023-03-13T07:58:45.494Z,11.10
2023-03-13T08:01:26.063Z,11.20
2023-03-13T08:03:55.855Z,11.30
2023-03-13T08:06:27.325Z,11.30
2023-03-13T08:08:57.601Z,11.30
2023-03-13T08:11:26.326Z,11.30
2023-03-13T08:13:57.258Z,11.40
2023-03-13T08:16:29.532Z,11.40
2023-03-13T08:18:57.867Z,11.50
2023-03-13T08:21:27.178Z,11.50
2023-03-13T08:23:56.967Z,11.50
2023-03-13T08:26:26.546Z,11.60
2023-03-13T08:28:55.645Z,11.60
2023-03-13T08:31:28.448Z,11.70
2023-03-13T08:33:55.223Z,11.80
2023-03-13T08:36:36.299Z,11.90
2023-03-13T08:39:15.924Z,11.90
2023-03-13T08:41:42.885Z,12.00
2023-03-13T08:44:14.916Z,12.00
2023-03-13T08:46:42.276Z,11.90
2023-03-13T08:49:09.717Z,12.00
2023-03-13T08:51:37.226Z,12.00
2023-03-13T08:54:04.595Z,11.90
2023-03-13T08:56:32.255Z,12.00
2023-03-13T08:59:00.860Z,11.90
2023-03-13T09:01:33.517Z,12.00
2023-03-13T09:04:03.832Z,11.90
2023-03-13T09:06:31.285Z,11.90
2023-03-13T09:08:58.567Z,11.90
2023-03-13T09:11:26.315Z,12.00
2023-03-13T09:13:55.397Z,12.10
2023-03-13T09:16:25.037Z,12.10
2023-03-13T09:18:52.632Z,12.20
2023-03-13T09:21:22.256Z,12.20
2023-03-13T09:23:50.373Z,12.20
2023-03-13T09:26:20.009Z,12.30
2023-03-13T09:28:48.839Z,12.40
2023-03-13T09:31:27.357Z,12.40
2023-03-13T09:33:54.838Z,12.40
2023-03-13T09:36:23.856Z,12.40
2023-03-13T09:38:56.556Z,12.40
2023-03-13T09:41:31.205Z,12.30
2023-03-13T09:44:09.623Z,12.20
2023-03-13T09:46:45.585Z,12.30
2023-03-13T09:49:15.998Z,12.30
2023-03-13T09:51:48.945Z,12.40
2023-03-13T09:54:36.243Z,12.50
2023-03-13T09:57:22.041Z,12.50
2023-03-13T10:00:19.786Z,12.60
2023-03-13T10:02:56.236Z,12.60
2023-03-13T10:05:26.665Z,12.70
2023-03-13T10:08:00.397Z,12.80
2023-03-13T10:10:47.228Z,12.80
2023-03-13T10:13:53.325Z,12.80
2023-03-13T10:16:44.840Z,12.70
2023-03-13T10:19:16.396Z,12.50
2023-03-13T10:21:46.732Z,12.40
2023-03-13T10:24:46.767Z,12.40
2023-03-13T10:27:15.620Z,12.40
2023-03-13T10:29:42.504Z,12.40
2023-03-13T10:32:13.870Z,12.40
2023-03-13T10:34:57.893Z,12.50
2023-03-13T10:37:30.061Z,12.60
2023-03-13T10:40:23.983Z,12.60
2023-03-13T10:42:52.829Z,12.70
2023-03-13T10:45:24.953Z,12.70
2023-03-13T10:47:57.084Z,12.70
2023-03-13T10:50:26.796Z,12.80
2023-03-13T10:52:55.155Z,12.90
2023-03-13T10:55:24.734Z,13.00
2023-03-13T10:58:18.883Z,13.10
2023-03-13T11:00:45.748Z,13.30
2023-03-13T11:03:31.665Z,13.50
2023-03-13T11:06:01.958Z,13.60
2023-03-13T11:08:35.248Z,13.70
2023-03-13T11:11:04.839Z,13.80
2023-03-13T11:13:37.979Z,13.90
2023-03-13T11:16:16.782Z,13.90
2023-03-13T11:18:56.670Z,14.00
2023-03-13T11:21:36.899Z,14.10
2023-03-13T11:24:13.372Z,14.10
2023-03-13T11:27:09.538Z,14.10
2023-03-13T11:30:02.652Z,14.20
2023-03-13T11:32:43.008Z,14.20
2023-03-13T11:35:21.579Z,14.30
2023-03-13T11:37:51.684Z,14.20
2023-03-13T11:40:27.132Z,14.20
2023-03-13T11:43:24.500Z,14.20
2023-03-13T11:46:04.333Z,14.20
2023-03-13T11:48:55.963Z,14.20
2023-03-13T11:51:57.600Z,14.10
2023-03-13T11:54:27.678Z,14.20
2023-03-13T11:57:03.087Z,14.10
2023-03-13T11:59:43.770Z,14.10
2023-03-13T12:02:27.857Z,14.10
2023-03-13T12:05:09.451Z,14.20
2023-03-13T12:07:41.425Z,14.20
2023-03-13T12:10:33.208Z,14.20
2023-03-13T12:13:10.318Z,14.20
2023-03-13T12:16:00.517Z,14.30
2023-03-13T12:18:32.985Z,14.40
2023-03-13T12:21:02.926Z,14.40
2023-03-13T12:24:00.452Z,14.50
2023-03-13T12:26:51.352Z,14.40
2023-03-13T12:29:39.970Z,14.40
2023-03-13T12:32:16.975Z,14.40
2023-03-13T12:35:15.236Z,14.50
2023-03-13T12:38:00.162Z,14.40
2023-03-13T12:40:58.137Z,14.50
2023-03-13T12:43:49.723Z,14.50
2023-03-13T12:46:27.011Z,14.60
2023-03-13T12:49:10.472Z,14.60
2023-03-13T12:51:49.658Z,14.50
2023-03-13T12:54:38.627Z,14.50
2023-03-13T12:57:11.139Z,14.40
2023-03-13T12:59:53.647Z,14.40
2023-03-13T13:02:23.682Z,14.40
2023-03-13T13:04:54.583Z,14.40
2023-03-13T13:07:33.885Z,14.40
2023-03-13T13:10:05.146Z,14.30
2023-03-13T13:12:32.035Z,14.40
2023-03-13T13:15:04.170Z,14.40
2023-03-13T13:17:39.597Z,14.50
2023-03-13T13:20:26.777Z,14.50
2023-03-13T13:22:54.032Z,14.50
2023-03-13T13:25:29.327Z,14.50
2023-03-13T13:27:58.745Z,14.50
2023-03-13T13:30:33.218Z,14.50
2023-03-13T13:33:20.424Z,14.50
2023-03-13T13:36:08.167Z,14.50
2023-03-13T13:38:39.653Z,14.50
2023-03-13T13:41:09.392Z,14.50
2023-03-13T13:43:37.499Z,14.50
2023-03-13T13:46:33.133Z,14.50
2023-03-13T13:49:06.680Z,14.50
2023-03-13T13:52:02.405Z,14.50
2023-03-13T13:54:47.295Z,14.50
2023-03-13T13:57:22.906Z,14.60
2023-03-13T13:59:53.487Z,14.70
2023-03-13T14:02:32.431Z,14.70
2023-03-13T14:05:06.998Z,14.70
2023-03-13T14:07:36.868Z,14.70
2023-03-13T14:10:21.841Z,14.70
2023-03-13T14:12:54.715Z,14.80
2023-03-13T14:15:24.850Z,14.80
2023-03-13T14:18:00.504Z,14.90
2023-03-13T14:20:31.047Z,14.90
2023-03-13T14:23:01.735Z,15.10
2023-03-13T14:25:41.628Z,15.10
2023-03-13T14:28:33.851Z,15.20
2023-03-13T14:31:00.732Z,15.20
2023-03-13T14:33:27.802Z,15.30
2023-03-13T14:35:54.803Z,15.40
2023-03-13T14:38:27.359Z,15.60
2023-03-13T14:40:58.022Z,15.60
2023-03-13T14:43:36.653Z,15.70
2023-03-13T14:46:31.271Z,15.80
2023-03-13T14:49:07.285Z,15.90
2023-03-13T14:51:39.458Z,15.90
2023-03-13T14:54:06.818Z,16.00
2023-03-13T14:56:36.428Z,16.00
2023-03-13T14:59:19.129Z,16.00
2023-03-13T15:02:04.534Z,16.00
2023-03-13T15:05:03.777Z,16.00
2023-03-13T15:07:47.463Z,16.10
2023-03-13T15:10:20.527Z,16.10
2023-03-13T15:12:47.720Z,16.00
2023-03-13T15:15:14.501Z,16.00
2023-03-13T15:17:41.603Z,15.90
2023-03-13T15:20:12.442Z,15.90
2023-03-13T15:22:42.377Z,15.80
2023-03-13T15:25:18.631Z,15.80
2023-03-13T15:27:45.678Z,15.70
2023-03-13T15:30:20.669Z,15.70
2023-03-13T15:32:48.001Z,15.70
2023-03-13T15:35:31.520Z,15.60
2023-03-13T15:38:00.700Z,15.60
2023-03-13T15:40:28.308Z,15.70
2023-03-13T15:42:55.491Z,15.70
2023-03-13T15:45:22.556Z,15.70
2023-03-13T15:47:49.945Z,15.60
2023-03-13T15:50:19.117Z,15.60
2023-03-13T15:52:46.223Z,15.60
2023-03-13T15:55:13.446Z,15.60
2023-03-13T15:57:48.975Z,15.70
2023-03-13T16:00:25.092Z,15.70
2023-03-13T16:02:52.001Z,15.60
2023-03-13T16:05:18.836Z,15.60
2023-03-13T16:07:45.648Z,15.60
2023-03-13T16:10:22.054Z,15.50
2023-03-13T16:12:50.671Z,15.60
2023-03-13T16:15:17.419Z,15.60
2023-03-13T16:17:44.189Z,15.60
2023-03-13T16:20:16.956Z,15.50
2023-03-13T16:22:44.079Z,15.40
2023-03-13T16:25:11.536Z,15.40
2023-03-13T16:27:39.689Z,15.20
2023-03-13T16:30:32.824Z,15.20
2023-03-13T16:33:00.228Z,15.10
2023-03-13T16:35:28.635Z,15.10
2023-03-13T16:37:57.151Z,15.20
2023-03-13T16:40:27.380Z,15.10
2023-03-13T16:42:54.100Z,15.20
2023-03-13T16:45:21.269Z,15.30
2023-03-13T16:47:48.507Z,15.30
2023-03-13T16:50:31.576Z,15.30
2023-03-13T16:52:58.609Z,15.30
2023-03-13T16:55:28.495Z,15.30
2023-03-13T16:57:59.109Z,15.40
2023-03-13T17:00:27.971Z,15.30
2023-03-13T17:02:56.435Z,15.40
2023-03-13T17:05:24.348Z,15.40
2023-03-13T17:07:52.032Z,15.50
2023-03-13T17:10:22.140Z,15.50
2023-03-13T17:12:49.551Z,15.40
2023-03-13T17:15:17.126Z,15.40
2023-03-13T17:17:48.656Z,15.40
2023-03-13T17:20:16.122Z,15.40
2023-03-13T17:22:43.031Z,15.40
2023-03-13T18:42:28.964Z,10.70
2023-03-13T18:44:55.805Z,10.70
2023-03-13T18:47:25.037Z,10.70
2023-03-13T18:49:52.033Z,10.80
2023-03-13T18:52:18.952Z,10.80
2023-03-13T18:54:45.812Z,10.80
2023-03-13T18:57:15.283Z,10.90
2023-03-13T18:59:42.545Z,10.90
2023-03-13T19:02:17.071Z,10.90
2023-03-13T19:04:44.593Z,10.90
2023-03-13T19:07:26.386Z,10.90
2023-03-13T19:09:56.522Z,10.90
2023-03-13T19:12:23.472Z,11.10
2023-03-13T19:14:52.941Z,11.10
2023-03-13T19:17:29.556Z,11.10
2023-03-13T19:19:59.110Z,11.10
2023-03-13T19:22:26.066Z,11.10
2023-03-13T19:24:53.004Z,11.20
2023-03-13T19:27:19.914Z,11.20
2023-03-13T19:29:47.032Z,11.20
2023-03-13T19:32:15.895Z,11.20
2023-03-13T19:34:43.145Z,11.20
2023-03-13T19:37:11.664Z,11.20
2023-03-13T19:39:38.463Z,11.20
2023-03-13T19:42:08.322Z,11.20
2023-03-13T19:44:36.199Z,11.20
2023-03-13T19:47:04.965Z,11.20
2023-03-13T19:49:32.002Z,11.20
2023-03-13T19:51:58.844Z,11.10
2023-03-13T19:54:25.737Z,11.10
2023-03-13T19:56:53.591Z,11.00
2023-03-13T19:59:26.779Z,11.00
2023-03-13T20:01:55.732Z,10.90
2023-03-13T20:04:23.080Z,10.90
2023-03-13T20:06:49.923Z,10.90
2023-03-13T20:09:17.885Z,10.80
2023-03-13T20:11:45.059Z,10.90
2023-03-13T20:14:12.053Z,10.80
2023-03-13T20:16:39.261Z,10.80
2023-03-13T20:19:06.973Z,10.70
2023-03-13T20:21:36.775Z,10.70
2023-03-13T20:24:04.197Z,10.60
2023-03-13T20:26:31.271Z,10.60
2023-03-13T20:28:58.808Z,10.50
2023-03-13T20:31:29.257Z,10.60
2023-03-13T20:33:57.506Z,10.70
2023-03-13T20:36:24.960Z,10.80
2023-03-13T20:38:52.236Z,10.90
2023-03-13T20:41:24.641Z,10.90
2023-03-13T20:43:52.431Z,11.00
2023-03-13T20:46:19.881Z,11.00
2023-03-13T20:48:46.837Z,11.10
2023-03-13T20:51:14.341Z,11.20
2023-03-13T20:53:42.336Z,11.20
2023-03-13T20:56:10.600Z,11.20
2023-03-13T20:58:38.126Z,11.20
2023-03-13T21:01:06.899Z,11.20
2023-03-13T21:03:35.731Z,11.30
2023-03-13T21:06:14.693Z,11.30
2023-03-13T21:08:41.794Z,11.30
2023-03-13T21:11:22.801Z,11.40
2023-03-13T21:13:51.058Z,11.40
2023-03-13T21:16:19.153Z,11.40
2023-03-13T21:18:46.785Z,11.40
2023-03-13T21:21:19.649Z,11.40
2023-03-13T21:23:47.070Z,11.40
2023-03-13T21:26:14.437Z,11.40
2023-03-13T21:28:41.436Z,11.40
2023-03-13T21:31:12.081Z,11.40
2023-03-13T21:33:41.132Z,11.40
2023-03-13T21:36:08.857Z,11.40
2023-03-13T21:38:36.155Z,11.40
2023-03-13T21:41:11.672Z,11.40
2023-03-13T21:43:41.750Z,11.40
2023-03-13T21:46:10.010Z,11.40
2023-03-13T21:48:41.118Z,11.40
2023-03-13T21:51:09.035Z,11.30
2023-03-13T21:53:36.582Z,11.20
2023-03-13T21:56:04.278Z,11.10
2023-03-13T21:58:31.298Z,11.10
2023-03-13T22:00:58.535Z,11.10
2023-03-13T22:03:28.762Z,11.10
2023-03-13T22:05:55.968Z,11.00
2023-03-13T22:08:22.793Z,11.00
2023-03-13T22:10:51.788Z,10.90
2023-03-13T22:13:19.162Z,10.90
2023-03-13T22:15:46.806Z,10.90
2023-03-13T22:18:14.898Z,10.90
2023-03-13T22:20:42.460Z,10.90
2023-03-13T22:23:10.731Z,10.90
2023-03-13T22:25:42.498Z,10.90
2023-03-13T22:28:10.575Z,10.80
2023-03-13T22:30:40.839Z,10.80
2023-03-13T22:33:08.283Z,10.80
2023-03-13T22:35:38.701Z,10.80
2023-03-13T22:38:05.975Z,10.70
2023-03-13T22:40:33.786Z,10.80
2023-03-13T22:43:00.714Z,10.80
2023-03-13T22:45:27.713Z,10.70
2023-03-13T22:47:54.645Z,10.70
2023-03-13T22:50:25.783Z,10.70
2023-03-13T22:52:53.233Z,10.70
2023-03-13T22:55:20.103Z,10.70
2023-03-13T22:57:46.924Z,10.70
2023-03-13T23:00:14.504Z,10.60
2023-03-13T23:02:41.593Z,10.60
2023-03-13T23:05:09.155Z,10.60
2023-03-13T23:07:40.473Z,10.60
2023-03-13T23:10:09.405Z,10.50
2023-03-13T23:12:36.435Z,10.50
2023-03-13T23:15:04.290Z,10.50
2023-03-13T23:17:32.776Z,10.50
2023-03-13T23:20:03.618Z,10.40
2023-03-13T23:22:32.932Z,10.40
2023-03-13T23:25:00.041Z,10.50
2023-03-13T23:27:27.313Z,10.50
2023-03-13T23:29:55.299Z,10.50
2023-03-13T23:32:22.879Z,10.50
2023-03-13T23:34:49.820Z,10.50
2023-03-13T23:37:16.714Z,10.50
2023-03-13T23:39:43.771Z,10.60
2023-03-13T23:42:10.790Z,10.50
2023-03-13T23:44:37.655Z,10.50
2023-03-13T23:47:04.538Z,10.50
2023-03-13T23:49:32.314Z,10.50
2023-03-13T23:51:59.355Z,10.50
2023-03-13T23:54:27.809Z,10.60
2023-03-13T23:56:58.286Z,10.60
2023-03-13T23:59:25.439Z,10.60
